Time;durP1;ratioP1;P1;durP2;ratioP2;P2;SDS_P1;SDS_P2;PMS_P1;PMS_P2;Temp;Humidity;BMP_temperature;BMP_pressure;BME280_temperature;BME280_humidity;BME280_pressure;Samples;Min_cycle;Max_cycle;Signal;HPM_P1;HPM_P2
2024/04/07 00:02:18;;;;;;;;;;;;;;;21.37;39.78;101051.89;102762;1294;63194;-78
2024/04/07 00:04:43;;;;;;;;;;;;;;;21.37;39.89;101057.30;102788;1297;64346;-78
2024/04/07 00:07:10;;;;;;;;;;;;;;;21.37;39.94;101069.11;102767;1294;63220;-78
2024/04/07 00:09:37;;;;;;;;;;;;;;;21.37;39.88;101072.89;102800;1294;64181;-79
2024/04/07 00:12:04;;;;;;;;;;;;;;;21.37;39.81;101074.13;102740;1295;63089;-78
2024/04/07 00:14:30;;;;;;;;;;;;;;;21.36;39.96;101082.92;102790;1299;63024;-77
2024/04/07 00:16:55;;;;;;;;;;;;;;;21.37;40.00;101087.92;102785;1294;63080;-79
2024/04/07 00:19:21;;;;;;;;;;;;;;;21.36;39.92;101091.15;102787;1295;63189;-80
2024/04/07 00:21:47;;;;;;;;;;;;;;;21.36;40.04;101090.11;102625;1296;63593;-79
2024/04/07 00:24:12;;;;;;;;;;;;;;;21.36;39.99;101086.89;102773;1292;73401;-78
2024/04/07 00:26:38;;;;;;;;;;;;;;;21.35;40.10;101088.19;102803;1295;63612;-79
2024/04/07 00:29:04;;;;;;;;;;;;;;;21.36;40.03;101095.64;102735;1300;63017;-77
2024/04/07 00:31:29;;;;;;;;;;;;;;;21.36;40.06;101100.88;102980;1292;63815;-78
2024/04/07 00:33:55;;;;;;;;;;;;;;;21.36;39.99;101106.41;102877;1291;63651;-78
2024/04/07 00:36:20;;;;;;;;;;;;;;;21.35;40.04;101103.77;103113;1294;63365;-78
2024/04/07 00:38:47;;;;;;;;;;;;;;;21.35;40.00;101104.29;103088;1294;63102;-79
2024/04/07 00:41:13;;;;;;;;;;;;;;;21.35;40.05;101104.84;102887;1290;63623;-79
2024/04/07 00:43:40;;;;;;;;;;;;;;;21.35;40.19;101104.68;102857;1294;63153;-78
2024/04/07 00:46:05;;;;;;;;;;;;;;;21.35;40.03;101109.86;102937;1292;63009;-79
2024/04/07 00:48:32;;;;;;;;;;;;;;;21.35;40.12;101106.13;103104;1292;64054;-79
2024/04/07 00:50:58;;;;;;;;;;;;;;;21.34;40.13;101106.50;103098;1292;63010;-79
2024/04/07 00:53:24;;;;;;;;;;;;;;;21.34;40.22;101110.11;102859;1292;64173;-79
2024/04/07 00:55:49;;;;;;;;;;;;;;;21.34;40.16;101111.89;103050;1291;63535;-78
2024/04/07 00:58:18;;;;;;;;;;;;;;;21.34;40.16;101111.53;103159;1292;64103;-78
2024/04/07 01:00:43;;;;;;;;;;;;;;;21.34;40.26;101112.98;103113;1290;76066;-77
2024/04/07 01:03:10;;;;;;;;;;;;;;;21.34;40.24;101117.65;103060;1289;63001;-78
2024/04/07 01:05:42;;;;;;;;;;;;;;;21.34;40.32;101120.31;102947;1292;62997;-79
2024/04/07 01:08:08;;;;;;;;;;;;;;;21.34;40.19;101118.35;103129;1291;72941;-79
2024/04/07 01:10:34;;;;;;;;;;;;;;;21.33;40.25;101115.17;102921;1292;76046;-79
2024/04/07 01:13:00;;;;;;;;;;;;;;;21.34;40.20;101115.34;102857;1292;63129;-79
2024/04/07 01:15:25;;;;;;;;;;;;;;;21.34;40.21;101111.75;102942;1294;62997;-79
2024/04/07 01:17:51;;;;;;;;;;;;;;;21.33;40.18;101114.11;102901;1291;63086;-77
2024/04/07 01:20:17;;;;;;;;;;;;;;;21.33;40.27;101111.98;102950;1292;63061;-79
2024/04/07 01:22:43;;;;;;;;;;;;;;;21.33;40.14;101115.21;103063;1291;75257;-79
2024/04/07 01:25:09;;;;;;;;;;;;;;;21.33;40.22;101113.61;103109;1289;63093;-78
2024/04/07 01:27:35;;;;;;;;;;;;;;;21.32;40.19;101109.33;102931;1291;63059;-78
2024/04/07 01:30:00;;;;;;;;;;;;;;;21.32;40.25;101107.54;102922;1291;63689;-78
2024/04/07 01:32:26;;;;;;;;;;;;;;;21.32;40.29;101103.78;103162;1291;63683;-78
2024/04/07 01:34:51;;;;;;;;;;;;;;;21.32;40.33;101098.05;102963;1292;76147;-78
2024/04/07 01:37:17;;;;;;;;;;;;;;;21.32;40.20;101097.52;102928;1291;63048;-79
2024/04/07 01:39:43;;;;;;;;;;;;;;;21.32;40.23;101095.03;102914;1290;62991;-78
2024/04/07 01:42:08;;;;;;;;;;;;;;;21.32;40.30;101095.77;102938;1294;63077;-78
2024/04/07 01:44:34;;;;;;;;;;;;;;;21.31;40.27;101095.45;102934;1294;64541;-78
2024/04/07 01:46:59;;;;;;;;;;;;;;;21.32;40.23;101095.06;103091;1290;76120;-79
2024/04/07 01:49:25;;;;;;;;;;;;;;;21.31;40.36;101097.42;103101;1293;63039;-78
2024/04/07 01:51:50;;;;;;;;;;;;;;;21.32;40.25;101099.55;103154;1291;63024;-79
2024/04/07 01:54:16;;;;;;;;;;;;;;;21.31;40.35;101098.33;103180;1292;63014;-78
2024/04/07 01:56:42;;;;;;;;;;;;;;;21.31;40.28;101096.56;103092;1289;63005;-78
2024/04/07 01:59:08;;;;;;;;;;;;;;;21.31;40.34;101098.88;103062;1291;76124;-78
2024/04/07 02:01:34;;;;;;;;;;;;;;;21.31;40.36;101100.33;103090;1294;63030;-79
2024/04/07 02:04:00;;;;;;;;;;;;;;;21.31;40.26;101104.81;102937;1289;63061;-78
2024/04/07 02:06:25;;;;;;;;;;;;;;;21.31;40.31;101107.50;102882;1294;62888;-77
2024/04/07 02:08:51;;;;;;;;;;;;;;;21.30;40.40;101107.69;103090;1291;62985;-78
2024/04/07 02:11:17;;;;;;;;;;;;;;;21.30;40.33;101107.34;103167;1294;63042;-78
2024/04/07 02:13:42;;;;;;;;;;;;;;;21.30;40.32;101110.95;102800;1291;63339;-81
2024/04/07 02:16:08;;;;;;;;;;;;;;;21.29;40.37;101110.77;102906;1291;63726;-79
2024/04/07 02:18:34;;;;;;;;;;;;;;;21.29;40.32;101116.34;102946;1294;63111;-78
2024/04/07 02:20:59;;;;;;;;;;;;;;;21.29;40.22;101111.34;102870;1292;63430;-79
2024/04/07 02:23:25;;;;;;;;;;;;;;;21.30;40.33;101111.30;102419;1296;715878;-78
2024/04/07 02:25:51;;;;;;;;;;;;;;;21.30;40.32;101114.00;103138;1291;63026;-78
2024/04/07 02:28:16;;;;;;;;;;;;;;;21.29;40.41;101118.88;102910;1289;63081;-78
2024/04/07 02:30:42;;;;;;;;;;;;;;;21.28;40.34;101123.55;102981;1292;63716;-78
2024/04/07 02:33:08;;;;;;;;;;;;;;;21.29;40.33;101119.80;102913;1292;63924;-78
2024/04/07 02:35:35;;;;;;;;;;;;;;;21.28;40.45;101121.06;102955;1291;63384;-78
2024/04/07 02:38:01;;;;;;;;;;;;;;;21.29;40.38;101121.05;103097;1290;64476;-78
2024/04/07 02:40:27;;;;;;;;;;;;;;;21.29;40.41;101122.66;102961;1291;63469;-78
2024/04/07 02:42:52;;;;;;;;;;;;;;;21.28;40.37;101124.48;102876;1294;63092;-77
2024/04/07 02:48:04;;;;;;;;;;;;;;;21.28;40.45;101132.54;102984;1290;64987;-77
2024/04/07 02:50:30;;;;;;;;;;;;;;;21.28;40.53;101129.51;102893;1294;63075;-78
2024/04/07 02:52:55;;;;;;;;;;;;;;;21.28;40.34;101134.69;103024;1289;62956;-78
2024/04/07 02:55:21;;;;;;;;;;;;;;;21.27;40.42;101137.04;102842;1295;63007;-78
2024/04/07 02:57:46;;;;;;;;;;;;;;;21.27;40.37;101135.45;102892;1292;63685;-78
2024/04/07 03:00:13;;;;;;;;;;;;;;;21.28;40.56;101135.80;103131;1291;63265;-79
2024/04/07 03:02:43;;;;;;;;;;;;;;;21.27;40.49;101142.09;103069;1292;62991;-79
2024/04/07 03:05:09;;;;;;;;;;;;;;;21.27;40.45;101145.86;102948;1294;77086;-78
2024/04/07 03:07:35;;;;;;;;;;;;;;;21.27;40.45;101145.88;103011;1291;62960;-77
2024/04/07 03:10:01;;;;;;;;;;;;;;;21.27;40.50;101143.16;102973;1292;64090;-77
2024/04/07 03:12:29;;;;;;;;;;;;;;;21.27;40.50;101146.75;103163;1292;63020;-77
2024/04/07 03:14:55;;;;;;;;;;;;;;;21.26;40.46;101146.09;102854;1291;63069;-79
2024/04/07 03:17:20;;;;;;;;;;;;;;;21.26;40.51;101150.02;102956;1290;63066;-79
2024/04/07 03:19:47;;;;;;;;;;;;;;;21.26;40.47;101145.91;103044;1291;64686;-77
2024/04/07 03:22:13;;;;;;;;;;;;;;;21.26;40.55;101149.48;103122;1293;63007;-78
2024/04/07 03:24:38;;;;;;;;;;;;;;;21.26;40.50;101153.98;102954;1291;63867;-78
2024/04/07 03:27:05;;;;;;;;;;;;;;;21.26;40.38;101155.39;102932;1296;64203;-77
2024/04/07 03:29:31;;;;;;;;;;;;;;;21.25;40.40;101162.95;103159;1289;63007;-77
2024/04/07 03:31:57;;;;;;;;;;;;;;;21.25;40.47;101166.34;103000;1292;62933;-79
2024/04/07 03:34:23;;;;;;;;;;;;;;;21.25;40.55;101162.44;102917;1292;63090;-79
2024/04/07 03:36:48;;;;;;;;;;;;;;;21.25;40.48;101160.83;102920;1294;63188;-78
2024/04/07 03:39:14;;;;;;;;;;;;;;;21.25;40.40;101165.66;102890;1292;63010;-79
2024/04/07 03:41:40;;;;;;;;;;;;;;;21.25;40.44;101164.77;103097;1294;63008;-78
2024/04/07 03:44:05;;;;;;;;;;;;;;;21.25;40.46;101162.45;102955;1290;62996;-78
2024/04/07 03:46:31;;;;;;;;;;;;;;;21.24;40.45;101168.58;103002;1291;63087;-78
2024/04/07 03:48:57;;;;;;;;;;;;;;;21.24;40.45;101169.45;102965;1292;63498;-78
2024/04/07 03:51:23;;;;;;;;;;;;;;;21.24;40.43;101168.39;103135;1292;64101;-79
2024/04/07 03:53:49;;;;;;;;;;;;;;;21.24;40.52;101168.95;103101;1291;63456;-78
2024/04/07 03:56:15;;;;;;;;;;;;;;;21.24;40.38;101173.06;103183;1292;63002;-79
2024/04/07 03:58:40;;;;;;;;;;;;;;;21.24;40.52;101178.98;102905;1289;63001;-78
2024/04/07 04:01:06;;;;;;;;;;;;;;;21.24;40.53;101178.82;102869;1294;76110;-79
2024/04/07 04:03:31;;;;;;;;;;;;;;;21.23;40.52;101174.36;102914;1291;62982;-79
2024/04/07 04:05:57;;;;;;;;;;;;;;;21.23;40.53;101173.29;103036;1292;63586;-78
2024/04/07 04:08:23;;;;;;;;;;;;;;;21.23;40.41;101178.68;103116;1293;62978;-79
2024/04/07 04:10:49;;;;;;;;;;;;;;;21.23;40.48;101182.62;103112;1292;63328;-78
2024/04/07 04:13:15;;;;;;;;;;;;;;;21.23;40.48;101186.02;102954;1294;64146;-78
2024/04/07 04:15:40;;;;;;;;;;;;;;;21.23;40.48;101190.13;102944;1291;62939;-79
2024/04/07 04:18:06;;;;;;;;;;;;;;;21.23;40.50;101194.82;103081;1292;63008;-79
2024/04/07 04:20:32;;;;;;;;;;;;;;;21.23;40.52;101202.87;102933;1291;63382;-79
2024/04/07 04:22:57;;;;;;;;;;;;;;;21.22;40.50;101204.13;103151;1294;63331;-79
2024/04/07 04:25:25;;;;;;;;;;;;;;;21.23;40.56;101205.17;103132;1292;63100;-79
2024/04/07 04:27:51;;;;;;;;;;;;;;;21.22;40.44;101208.96;103164;1294;64183;-77
2024/04/07 04:30:16;;;;;;;;;;;;;;;21.23;40.48;101214.67;102906;1294;64078;-78
2024/04/07 04:32:42;;;;;;;;;;;;;;;21.23;40.54;101222.73;103145;1292;63770;-78
2024/04/07 04:35:07;;;;;;;;;;;;;;;21.22;40.38;101225.28;103088;1292;64188;-78
2024/04/07 04:37:35;;;;;;;;;;;;;;;21.22;40.55;101232.13;103085;1291;62883;-78
2024/04/07 04:40:01;;;;;;;;;;;;;;;21.22;40.64;101232.66;102882;1292;63069;-78
2024/04/07 04:42:26;;;;;;;;;;;;;;;21.21;40.53;101234.46;102945;1292;62983;-79
2024/04/07 04:44:52;;;;;;;;;;;;;;;21.20;40.57;101238.45;102880;1292;64247;-79
2024/04/07 04:47:18;;;;;;;;;;;;;;;21.20;40.58;101238.80;103138;1292;63002;-78
2024/04/07 04:49:44;;;;;;;;;;;;;;;21.21;40.53;101240.21;102966;1292;64125;-78
2024/04/07 04:52:09;;;;;;;;;;;;;;;21.20;40.42;101242.06;102907;1292;63146;-78
2024/04/07 04:54:35;;;;;;;;;;;;;;;21.20;40.62;101246.00;102903;1292;63211;-78
2024/04/07 04:57:00;;;;;;;;;;;;;;;21.20;40.56;101249.26;103079;1294;64132;-78
2024/04/07 04:59:26;;;;;;;;;;;;;;;21.20;40.46;101252.84;102918;1291;63137;-78
2024/04/07 05:01:52;;;;;;;;;;;;;;;21.20;40.67;101253.73;103019;1294;65812;-78
2024/04/07 05:04:18;;;;;;;;;;;;;;;21.19;40.55;101257.67;102891;1294;62926;-79
2024/04/07 05:06:43;;;;;;;;;;;;;;;21.19;40.58;101260.38;103151;1293;62946;-79
2024/04/07 05:09:10;;;;;;;;;;;;;;;21.19;40.49;101263.79;102872;1292;63912;-79
2024/04/07 05:11:36;;;;;;;;;;;;;;;21.19;40.71;101263.98;102901;1294;63065;-79
2024/04/07 05:14:01;;;;;;;;;;;;;;;21.19;40.60;101269.54;102904;1291;63023;-78
2024/04/07 05:16:27;;;;;;;;;;;;;;;21.19;40.54;101273.48;102903;1294;63026;-79
2024/04/07 05:18:52;;;;;;;;;;;;;;;21.19;40.50;101274.18;103107;1292;63013;-79
2024/04/07 05:21:18;;;;;;;;;;;;;;;21.19;40.45;101278.67;103086;1294;76130;-78
2024/04/07 05:23:44;;;;;;;;;;;;;;;21.18;40.52;101272.42;102934;1291;63066;-79
2024/04/07 05:26:16;;;;;;;;;;;;;;;21.18;40.54;101276.02;102910;1292;63864;-79
2024/04/07 05:28:42;;;;;;;;;;;;;;;21.19;40.60;101274.37;103144;1294;72522;-78
2024/04/07 05:31:12;;;;;;;;;;;;;;;21.19;40.51;101278.48;102940;1294;63449;-79
2024/04/07 05:33:38;;;;;;;;;;;;;;;21.19;40.52;101279.55;102926;1292;63014;-78
2024/04/07 05:36:04;;;;;;;;;;;;;;;21.19;40.71;101279.36;103181;1292;62989;-77
2024/04/07 05:38:30;;;;;;;;;;;;;;;21.20;40.60;101278.80;102933;1294;63001;-78
2024/04/07 05:40:55;;;;;;;;;;;;;;;21.19;40.62;101281.13;103093;1294;65056;-78
2024/04/07 05:43:21;;;;;;;;;;;;;;;21.20;40.67;101281.25;103173;1292;64006;-79
2024/04/07 05:45:47;;;;;;;;;;;;;;;21.20;40.58;101284.30;103058;1294;62987;-79
2024/04/07 05:48:12;;;;;;;;;;;;;;;21.20;40.63;101288.38;102958;1292;63000;-78
2024/04/07 05:50:38;;;;;;;;;;;;;;;21.21;40.57;101288.70;103071;1294;63685;-78
2024/04/07 05:53:04;;;;;;;;;;;;;;;21.22;40.65;101294.58;103073;1292;63847;-78
2024/04/07 05:55:29;;;;;;;;;;;;;;;21.23;40.49;101295.96;103187;1294;64111;-78
2024/04/07 05:57:55;;;;;;;;;;;;;;;21.23;40.60;101294.31;102913;1294;64005;-79
2024/04/07 06:00:22;;;;;;;;;;;;;;;21.24;40.69;101296.42;103194;1291;63004;-77
2024/04/07 06:02:48;;;;;;;;;;;;;;;21.24;40.54;101299.05;103103;1294;72257;-78
2024/04/07 06:05:13;;;;;;;;;;;;;;;21.25;40.54;101303.46;103203;1294;63000;-78
2024/04/07 06:07:39;;;;;;;;;;;;;;;21.26;40.60;101303.08;102876;1294;63061;-77
2024/04/07 06:10:05;;;;;;;;;;;;;;;21.26;40.67;101305.55;102991;1291;63711;-78
2024/04/07 06:12:30;;;;;;;;;;;;;;;21.28;40.64;101309.98;103237;1292;62930;-79
2024/04/07 06:14:56;;;;;;;;;;;;;;;21.29;40.59;101313.13;102890;1292;71382;-79
2024/04/07 06:17:21;;;;;;;;;;;;;;;21.29;40.70;101310.05;103108;1294;63770;-77
2024/04/07 06:19:47;;;;;;;;;;;;;;;21.30;40.62;101311.09;103137;1294;63011;-78
2024/04/07 06:22:13;;;;;;;;;;;;;;;21.31;40.64;101310.50;103015;1294;64179;-77
2024/04/07 06:24:39;;;;;;;;;;;;;;;21.32;40.61;101310.27;102933;1294;63962;-77
2024/04/07 06:27:05;;;;;;;;;;;;;;;21.33;40.62;101312.52;102897;1290;72377;-79
2024/04/07 06:29:31;;;;;;;;;;;;;;;21.34;40.76;101314.23;103050;1294;63041;-78
2024/04/07 06:31:57;;;;;;;;;;;;;;;21.34;40.71;101313.85;103146;1289;62997;-78
2024/04/07 06:34:24;;;;;;;;;;;;;;;21.35;40.70;101316.48;103139;1292;63844;-78
2024/04/07 06:36:51;;;;;;;;;;;;;;;21.36;40.76;101318.60;103017;1292;64101;-78
2024/04/07 06:39:16;;;;;;;;;;;;;;;21.36;40.80;101316.92;102874;1294;63735;-79
2024/04/07 06:41:42;;;;;;;;;;;;;;;21.37;40.78;101323.30;102902;1294;64031;-78
2024/04/07 06:44:07;;;;;;;;;;;;;;;21.38;40.70;101324.70;103113;1294;62991;-78
2024/04/07 06:46:34;;;;;;;;;;;;;;;21.39;40.89;101326.97;102972;1292;63694;-79
2024/04/07 06:48:59;;;;;;;;;;;;;;;21.39;40.86;101324.79;103076;1294;72278;-78
2024/04/07 06:51:28;;;;;;;;;;;;;;;21.40;40.76;101331.01;102966;1292;63320;-78
2024/04/07 06:53:54;;;;;;;;;;;;;;;21.41;40.84;101333.11;103275;1290;63541;-79
2024/04/07 06:56:20;;;;;;;;;;;;;;;21.42;40.79;101340.58;103398;1291;64414;-77
2024/04/07 06:58:45;;;;;;;;;;;;;;;21.43;40.94;101336.38;103427;1292;63094;-78
2024/04/07 07:01:11;;;;;;;;;;;;;;;21.43;40.91;101336.89;102976;1292;62974;-79
2024/04/07 07:03:37;;;;;;;;;;;;;;;21.45;40.90;101339.69;102957;1292;63063;-79
2024/04/07 07:06:03;;;;;;;;;;;;;;;21.45;40.93;101335.36;102976;1291;63061;-78
2024/04/07 07:08:29;;;;;;;;;;;;;;;21.46;40.91;101341.21;103145;1291;63583;-79
2024/04/07 07:11:01;;;;;;;;;;;;;;;21.46;40.91;101341.71;103469;1291;63013;-79
2024/04/07 07:13:27;;;;;;;;;;;;;;;21.47;40.91;101345.79;103580;1294;75926;-79
2024/04/07 07:15:53;;;;;;;;;;;;;;;21.48;40.92;101345.02;103441;1292;63040;-79
2024/04/07 07:18:18;;;;;;;;;;;;;;;21.48;40.97;101349.45;103366;1292;62974;-79
2024/04/07 07:20:45;;;;;;;;;;;;;;;21.49;40.91;101342.26;103352;1297;62973;-78
2024/04/07 07:23:11;;;;;;;;;;;;;;;21.50;41.04;101347.94;103350;1291;62928;-78
2024/04/07 07:25:39;;;;;;;;;;;;;;;21.51;40.94;101360.06;103357;1294;63009;-78
2024/04/07 07:28:04;;;;;;;;;;;;;;;21.51;40.96;101363.79;103173;1292;63086;-79
2024/04/07 07:30:30;;;;;;;;;;;;;;;21.51;40.97;101359.47;103267;1293;63008;-77
2024/04/07 07:32:56;;;;;;;;;;;;;;;21.52;41.08;101364.09;103208;1291;63078;-77
2024/04/07 07:35:21;;;;;;;;;;;;;;;21.53;41.02;101360.29;103258;1293;63023;-78
2024/04/07 07:37:47;;;;;;;;;;;;;;;21.52;40.95;101357.62;103242;1296;62970;-78
2024/04/07 07:40:13;;;;;;;;;;;;;;;21.53;41.04;101368.34;103515;1292;63084;-78
2024/04/07 07:42:38;;;;;;;;;;;;;;;21.53;40.87;101367.27;103075;1295;63009;-78
2024/04/07 07:45:04;;;;;;;;;;;;;;;21.53;41.06;101361.69;103229;1292;62997;-78
2024/04/07 07:47:30;;;;;;;;;;;;;;;21.54;40.80;101361.67;103166;1292;62984;-78
2024/04/07 07:49:57;;;;;;;;;;;;;;;21.54;40.87;101362.36;103165;1296;63812;-78
2024/04/07 07:52:23;;;;;;;;;;;;;;;21.54;41.03;101363.48;103221;1291;62886;-78
2024/04/07 07:54:49;;;;;;;;;;;;;;;21.54;40.93;101368.11;103117;1296;62988;-78
2024/04/07 07:57:15;;;;;;;;;;;;;;;21.54;40.95;101374.39;102861;1292;62994;-78
2024/04/07 07:59:41;;;;;;;;;;;;;;;21.54;40.93;101376.34;102891;1291;63164;-78
2024/04/07 08:02:06;;;;;;;;;;;;;;;21.53;40.90;101374.41;102932;1291;63027;-79
2024/04/07 08:04:32;;;;;;;;;;;;;;;21.53;40.87;101380.52;102849;1295;62982;-79
2024/04/07 08:06:57;;;;;;;;;;;;;;;21.53;40.76;101379.45;102908;1295;63015;-79
2024/04/07 08:09:26;;;;;;;;;;;;;;;21.53;40.91;101374.98;102924;1291;74269;-79
2024/04/07 08:11:51;;;;;;;;;;;;;;;21.53;40.87;101380.00;102862;1291;63084;-79
2024/04/07 08:14:17;;;;;;;;;;;;;;;21.52;40.88;101381.64;102897;1295;63098;-78
2024/04/07 08:16:43;;;;;;;;;;;;;;;21.52;40.88;101385.23;102887;1295;62993;-77
2024/04/07 08:19:08;;;;;;;;;;;;;;;21.52;40.89;101385.58;102890;1295;63986;-78
2024/04/07 08:21:39;;;;;;;;;;;;;;;21.52;40.75;101391.70;102867;1292;62991;-79
2024/04/07 08:24:05;;;;;;;;;;;;;;;21.51;40.86;101390.84;102976;1294;64198;-78
2024/04/07 08:26:32;;;;;;;;;;;;;;;21.51;40.75;101391.23;102853;1293;63005;-78
2024/04/07 08:28:57;;;;;;;;;;;;;;;21.50;40.85;101400.05;102873;1292;63222;-78
2024/04/07 08:31:24;;;;;;;;;;;;;;;21.50;40.87;101391.27;102930;1296;62917;-78
2024/04/07 08:33:49;;;;;;;;;;;;;;;21.49;40.75;101398.45;102982;1294;62961;-78
2024/04/07 08:36:15;;;;;;;;;;;;;;;21.49;40.70;101404.05;102898;1294;62925;-78
2024/04/07 08:38:41;;;;;;;;;;;;;;;21.50;40.73;101405.80;102965;1294;63004;-78
2024/04/07 08:41:10;;;;;;;;;;;;;;;21.49;40.89;101409.59;102855;1295;76022;-79
2024/04/07 08:43:39;;;;;;;;;;;;;;;21.49;40.75;101408.69;102909;1295;62912;-79
2024/04/07 08:46:14;;;;;;;;;;;;;;;21.49;40.64;101401.53;102926;1294;62920;-78
2024/04/07 08:48:44;;;;;;;;;;;;;;;21.49;40.76;101412.49;102815;1298;71387;-78
2024/04/07 08:51:10;;;;;;;;;;;;;;;21.48;40.70;101412.30;102891;1294;77050;-78
2024/04/07 08:53:39;;;;;;;;;;;;;;;21.48;40.69;101415.36;102927;1295;63706;-79
2024/04/07 08:56:08;;;;;;;;;;;;;;;21.48;40.71;101416.09;102877;1294;62998;-79
2024/04/07 08:58:35;;;;;;;;;;;;;;;21.48;40.63;101420.38;102888;1295;72653;-79
2024/04/07 09:01:00;;;;;;;;;;;;;;;21.48;40.76;101422.89;102884;1291;63625;-78
2024/04/07 09:03:27;;;;;;;;;;;;;;;21.48;40.81;101425.59;102843;1291;62980;-79
2024/04/07 09:05:53;;;;;;;;;;;;;;;21.48;40.78;101436.52;102912;1294;62929;-79
2024/04/07 09:08:21;;;;;;;;;;;;;;;21.48;40.64;101433.83;102921;1292;72437;-78
2024/04/07 09:10:47;;;;;;;;;;;;;;;21.48;40.66;101437.08;102917;1297;64171;-79
2024/04/07 09:13:13;;;;;;;;;;;;;;;21.47;40.65;101437.80;102898;1292;64547;-79
2024/04/07 09:15:38;;;;;;;;;;;;;;;21.47;40.78;101432.98;102880;1292;63031;-79
2024/04/07 09:18:04;;;;;;;;;;;;;;;21.47;40.80;101431.35;102886;1294;64103;-78
2024/04/07 09:20:32;;;;;;;;;;;;;;;21.47;40.65;101435.31;102794;1294;72518;-78
2024/04/07 09:22:58;;;;;;;;;;;;;;;21.47;40.68;101429.94;102765;1297;76107;-79
2024/04/07 09:25:23;;;;;;;;;;;;;;;21.48;40.68;101435.11;102762;1297;63389;-79
2024/04/07 09:27:49;;;;;;;;;;;;;;;21.48;40.73;101436.54;102787;1299;63114;-79
2024/04/07 09:30:15;;;;;;;;;;;;;;;21.47;40.77;101433.17;102635;1300;63817;-79
2024/04/07 09:32:43;;;;;;;;;;;;;;;21.47;40.53;101431.02;102750;1296;63102;-78
2024/04/07 09:35:09;;;;;;;;;;;;;;;21.47;40.68;101426.70;102733;1294;64261;-78
2024/04/07 09:37:41;;;;;;;;;;;;;;;21.47;40.68;101433.34;102834;1297;63055;-79
2024/04/07 09:40:06;;;;;;;;;;;;;;;21.47;40.66;101432.29;102674;1298;72421;-79
2024/04/07 09:42:32;;;;;;;;;;;;;;;21.47;40.68;101431.41;102748;1300;63228;-78
2024/04/07 09:44:58;;;;;;;;;;;;;;;21.46;40.66;101431.96;102565;1298;63098;-78
2024/04/07 09:47:27;;;;;;;;;;;;;;;21.46;40.75;101434.15;102659;1297;64258;-78
2024/04/07 09:49:57;;;;;;;;;;;;;;;21.46;40.60;101436.11;102623;1300;72494;-79
2024/04/07 09:52:23;;;;;;;;;;;;;;;21.46;40.68;101441.69;102744;1293;76103;-78
2024/04/07 09:54:49;;;;;;;;;;;;;;;21.46;40.57;101439.35;102658;1300;62983;-78
2024/04/07 09:57:17;;;;;;;;;;;;;;;21.45;40.66;101444.39;102656;1295;63013;-78
2024/04/07 09:59:43;;;;;;;;;;;;;;;21.44;40.66;101446.07;102908;1294;62891;-79
2024/04/07 10:02:12;;;;;;;;;;;;;;;21.44;40.51;101444.09;102950;1294;64087;-79
2024/04/07 10:04:38;;;;;;;;;;;;;;;21.44;40.67;101438.57;102910;1293;63046;-79
2024/04/07 10:07:04;;;;;;;;;;;;;;;21.43;40.71;101441.29;102952;1295;63018;-78
2024/04/07 10:09:30;;;;;;;;;;;;;;;21.43;40.65;101447.02;102918;1295;62965;-78
2024/04/07 10:11:56;;;;;;;;;;;;;;;21.42;40.66;101446.16;102898;1295;63832;-79
2024/04/07 10:14:22;;;;;;;;;;;;;;;21.43;40.54;101446.86;102892;1294;63703;-78
2024/04/07 10:16:49;;;;;;;;;;;;;;;21.42;40.62;101443.65;102956;1293;63042;-78
2024/04/07 10:19:15;;;;;;;;;;;;;;;21.42;40.66;101442.27;102843;1297;63742;-79
2024/04/07 10:21:40;;;;;;;;;;;;;;;21.42;40.56;101441.71;102890;1295;64171;-78
2024/04/07 10:24:06;;;;;;;;;;;;;;;21.42;40.52;101447.13;102897;1297;63024;-78
2024/04/07 10:26:32;;;;;;;;;;;;;;;21.42;40.59;101449.08;102921;1295;62954;-78
2024/04/07 10:28:58;;;;;;;;;;;;;;;21.41;40.61;101452.33;102873;1293;63004;-79
2024/04/07 10:31:24;;;;;;;;;;;;;;;21.41;40.60;101448.40;102874;1297;63444;-79
2024/04/07 10:33:53;;;;;;;;;;;;;;;21.41;40.63;101447.70;102881;1297;64209;-78
2024/04/07 10:36:20;;;;;;;;;;;;;;;21.41;40.52;101446.23;102869;1292;63355;-79
2024/04/07 10:38:48;;;;;;;;;;;;;;;21.40;40.46;101440.93;102935;1292;63050;-79
2024/04/07 10:41:18;;;;;;;;;;;;;;;21.41;40.55;101443.41;102873;1297;72409;-79
2024/04/07 10:43:44;;;;;;;;;;;;;;;21.40;40.51;101438.39;102901;1296;76055;-78
2024/04/07 10:46:11;;;;;;;;;;;;;;;21.41;40.58;101435.52;102863;1292;62914;-78
2024/04/07 10:48:36;;;;;;;;;;;;;;;21.40;40.53;101429.46;102956;1295;63068;-78
2024/04/07 10:51:03;;;;;;;;;;;;;;;21.40;40.53;101429.27;103120;1294;63005;-79
2024/04/07 10:53:29;;;;;;;;;;;;;;;21.41;40.64;101433.74;102893;1289;63071;-79
2024/04/07 10:55:54;;;;;;;;;;;;;;;21.40;40.51;101431.44;102918;1295;62979;-79
2024/04/07 10:58:20;;;;;;;;;;;;;;;21.40;40.58;101432.70;103060;1289;63093;-78
2024/04/07 11:00:46;;;;;;;;;;;;;;;21.40;40.62;101428.75;102911;1289;62984;-78
2024/04/07 11:03:11;;;;;;;;;;;;;;;21.40;40.54;101439.69;102900;1295;71569;-78
2024/04/07 11:05:37;;;;;;;;;;;;;;;21.40;40.56;101434.11;103082;1294;62982;-78
2024/04/07 11:08:02;;;;;;;;;;;;;;;21.40;40.51;101429.63;102893;1291;63769;-78
2024/04/07 11:10:38;;;;;;;;;;;;;;;21.40;40.60;101426.08;102911;1290;63716;-78
2024/04/07 11:13:04;;;;;;;;;;;;;;;21.40;40.47;101432.16;103041;1303;72456;-80
2024/04/07 11:15:31;;;;;;;;;;;;;;;21.41;40.51;101426.77;102952;1294;62910;-79
2024/04/07 11:17:57;;;;;;;;;;;;;;;21.41;40.55;101429.80;103066;1290;62936;-79
2024/04/07 11:20:23;;;;;;;;;;;;;;;21.40;40.41;101434.47;103137;1294;62968;-79
2024/04/07 11:22:48;;;;;;;;;;;;;;;21.41;40.43;101435.34;102916;1295;63642;-79
2024/04/07 11:25:14;;;;;;;;;;;;;;;21.41;40.35;101430.31;103086;1295;63944;-79
2024/04/07 11:27:40;;;;;;;;;;;;;;;21.40;40.50;101437.69;102919;1294;64120;-78
2024/04/07 11:30:05;;;;;;;;;;;;;;;21.41;40.48;101430.16;102915;1294;62984;-78
2024/04/07 11:32:31;;;;;;;;;;;;;;;21.41;40.47;101429.61;103123;1295;62930;-76
2024/04/07 11:34:56;;;;;;;;;;;;;;;21.41;40.44;101424.80;103029;1294;62996;-77
2024/04/07 11:37:22;;;;;;;;;;;;;;;21.40;40.45;101426.05;103113;1294;62994;-78
2024/04/07 11:39:52;;;;;;;;;;;;;;;21.40;40.44;101429.27;103294;1294;63009;-78
2024/04/07 11:42:18;;;;;;;;;;;;;;;21.41;40.39;101425.34;103126;1290;62950;-80
2024/04/07 11:44:44;;;;;;;;;;;;;;;21.40;40.43;101428.36;103459;1292;62975;-77
2024/04/07 11:47:10;;;;;;;;;;;;;;;21.41;40.38;101414.23;103560;1290;63908;-78
2024/04/07 11:49:35;;;;;;;;;;;;;;;21.41;40.46;101413.32;102974;1292;62997;-79
2024/04/07 11:52:01;;;;;;;;;;;;;;;21.41;40.41;101413.98;103201;1295;62996;-79
2024/04/07 11:54:27;;;;;;;;;;;;;;;21.42;40.43;101407.70;103055;1293;63054;-79
2024/04/07 11:56:52;;;;;;;;;;;;;;;21.42;40.31;101410.74;102997;1290;71359;-79
2024/04/07 11:59:18;;;;;;;;;;;;;;;21.42;40.29;101412.36;102853;1295;64570;-78
2024/04/07 12:01:43;;;;;;;;;;;;;;;21.42;40.23;101409.48;102894;1294;63915;-79
2024/04/07 12:04:09;;;;;;;;;;;;;;;21.42;40.28;101420.42;102862;1292;63790;-77
2024/04/07 12:06:35;;;;;;;;;;;;;;;21.42;40.34;101424.13;103133;1294;64114;-78
2024/04/07 12:09:02;;;;;;;;;;;;;;;21.42;40.10;101414.84;102921;1291;72490;-78
2024/04/07 12:11:27;;;;;;;;;;;;;;;21.42;40.22;101413.27;102915;1291;76264;-79
2024/04/07 12:13:53;;;;;;;;;;;;;;;21.42;40.23;101403.01;103045;1294;63010;-78
2024/04/07 12:16:19;;;;;;;;;;;;;;;21.42;40.08;101401.74;103083;1293;63006;-79
2024/04/07 12:18:44;;;;;;;;;;;;;;;21.43;40.20;101408.19;102886;1294;64601;-79
2024/04/07 12:21:10;;;;;;;;;;;;;;;21.43;40.23;101403.89;103098;1294;63882;-79
2024/04/07 12:23:35;;;;;;;;;;;;;;;21.42;40.11;101405.89;102919;1291;63943;-78